This is the latest recevied weather packets stored in our database for station/object VE3MJM-WX. If no packets are shown the sender has not sent any weather packets the latest 10 day(s).
| Time | Temp. | Humidity | Pressure | Rain* | Wind** | Luminosity | Snow |
|---|---|---|---|---|---|---|---|
| 1777628226 | 1.67° C | 92% | 1008.7 hPa | 0 mm | - | - | - |
| 1777627323 | 1.67° C | 87% | 1008.7 hPa | 0 mm | - | - | - |
| 1777626421 | 1.67° C | 86% | 1008.8 hPa | 0 mm | - | - | - |
| 1777625518 | 1.67° C | 89% | 1008.9 hPa | 0 mm | - | - | - |
| 1777624616 | 0.56° C | 97% | 1008.5 hPa | 0 mm | - | - | - |
| 1777623713 | 0.56° C | 96% | 1008.8 hPa | 0 mm | - | - | - |
| 1777622811 | 0.56° C | 97% | 1009 hPa | 0 mm | - | - | - |
| 1777621908 | 0° C | 97% | 1008.9 hPa | 0 mm | - | - | - |
| 1777621005 | 0° C | 98% | 1008.8 hPa | 0 mm | - | - | - |
| 1777620103 | 0° C | 98% | 1008.7 hPa | 0 mm | - | - | - |
| 1777619200 | 0° C | 98% | 1008.6 hPa | 0 mm | - | - | - |
| 1777618298 | -0.56° C | 96% | 1008.8 hPa | 0 mm | - | - | - |
| 1777617395 | -0.56° C | 98% | 1008.7 hPa | 0 mm | - | - | - |
| 1777616493 | -1.11° C | 99% | 1009.1 hPa | 0 mm | - | - | - |
| 1777615590 | -1.11° C | 98% | 1009.4 hPa | 0 mm | - | - | - |
| 1777614688 | -1.11° C | 99% | 1009.3 hPa | 0 mm | - | - | - |
| 1777613785 | -1.11° C | 97% | 1009.2 hPa | 0 mm | - | - | - |
| 1777612882 | -1.11° C | 97% | 1009.3 hPa | 0 mm | - | - | - |
| 1777611980 | -1.11° C | 96% | 1009.7 hPa | 0 mm | - | - | - |
| 1777611077 | -0.56° C | 94% | 1009.6 hPa | 0 mm | - | - | - |
| 1777610175 | 0° C | 94% | 1009.5 hPa | 0 mm | - | - | - |
| 1777609272 | 0° C | 93% | 1009.6 hPa | 0 mm | - | - | - |
| 1777608370 | 0° C | 93% | 1009.3 hPa | 0 mm | - | - | - |
| 1777607467 | 0.56° C | 91% | 1009.5 hPa | 0 mm | - | - | - |
| 1777606565 | 1.11° C | 88% | 1009.5 hPa | 0 mm | - | - | - |
* Rain latest hour (hover to see other rain measurements)
** Current wind speed in m/s (hover to see current wind gust speed)